createdAt,value
2022-11-16T00:02:56.505Z,35.90
2022-11-16T00:05:43.323Z,35.40
2022-11-16T00:08:37.239Z,36.00
2022-11-16T00:11:23.910Z,33.60
2022-11-16T00:14:10.476Z,34.40
2022-11-16T00:16:57.421Z,31.80
2022-11-16T00:19:43.912Z,35.50
2022-11-16T00:22:30.758Z,34.30
2022-11-16T00:25:17.769Z,36.50
2022-11-16T00:28:04.597Z,36.70
2022-11-16T00:30:58.922Z,34.80
2022-11-16T00:33:45.462Z,34.80
2022-11-16T00:36:31.894Z,35.70
2022-11-16T00:39:18.863Z,35.20
2022-11-16T00:42:05.769Z,33.50
2022-11-16T00:44:52.837Z,33.20
2022-11-16T00:47:39.326Z,33.10
2022-11-16T00:50:26.153Z,35.50
2022-11-16T00:53:13.914Z,32.10
2022-11-16T00:56:00.437Z,32.50
2022-11-16T00:58:47.180Z,31.80
2022-11-16T01:01:34.429Z,31.40
2022-11-16T01:04:21.461Z,32.90
2022-11-16T01:07:08.151Z,34.20
2022-11-16T01:09:55.025Z,34.30
2022-11-16T01:12:42.134Z,33.70
2022-11-16T01:15:29.091Z,32.40
2022-11-16T01:18:15.916Z,33.80
2022-11-16T01:21:06.425Z,30.10
2022-11-16T01:23:53.009Z,31.10
2022-11-16T01:26:39.690Z,31.60
2022-11-16T01:29:28.050Z,29.00
2022-11-16T01:32:15.508Z,31.00
2022-11-16T01:35:02.247Z,29.50
2022-11-16T01:37:48.612Z,28.40
2022-11-16T01:40:35.018Z,26.20
2022-11-16T01:43:27.343Z,31.30
2022-11-16T01:46:14.295Z,30.60
2022-11-16T01:49:12.482Z,34.10
2022-11-16T01:52:04.920Z,31.50
2022-11-16T01:54:52.912Z,30.00
2022-11-16T01:57:41.859Z,30.10
2022-11-16T02:00:28.769Z,29.50
2022-11-16T02:03:18.894Z,28.80
2022-11-16T02:06:12.883Z,28.00
2022-11-16T02:09:27.679Z,28.10
2022-11-16T02:12:41.870Z,29.00
2022-11-16T02:15:47.511Z,31.40
2022-11-16T02:19:00.038Z,30.00
2022-11-16T02:21:52.002Z,31.80
2022-11-16T02:25:17.567Z,28.50
2022-11-16T02:28:16.879Z,32.40
2022-11-16T02:31:05.367Z,28.80
2022-11-16T02:33:52.075Z,28.20
2022-11-16T02:36:38.991Z,27.60
2022-11-16T02:39:27.387Z,26.60
2022-11-16T02:42:28.308Z,18.90
2022-11-16T02:45:18.943Z,27.00
2022-11-16T02:48:08.658Z,32.00
2022-11-16T02:50:55.113Z,28.60
2022-11-16T02:53:51.836Z,28.90
2022-11-16T02:56:56.836Z,23.70
2022-11-16T02:59:45.605Z,28.10
2022-11-16T03:02:32.190Z,28.00
2022-11-16T03:05:32.349Z,27.10
2022-11-16T03:08:23.134Z,28.50
2022-11-16T03:11:36.365Z,28.70
2022-11-16T03:14:26.990Z,27.40
2022-11-16T03:17:23.294Z,26.80
2022-11-16T03:20:24.415Z,27.80
2022-11-16T03:23:16.419Z,28.20
2022-11-16T03:26:06.252Z,28.90
2022-11-16T03:29:15.284Z,26.00
2022-11-16T03:32:30.229Z,22.80
2022-11-16T03:35:22.500Z,25.70
2022-11-16T03:38:09.236Z,22.50
2022-11-16T03:41:02.579Z,22.80
2022-11-16T03:43:49.538Z,21.60
2022-11-16T03:51:23.647Z,25.20
2022-11-16T03:54:10.502Z,25.80
2022-11-16T03:56:57.096Z,23.00
2022-11-16T03:59:44.640Z,25.00
2022-11-16T04:02:31.411Z,23.70
2022-11-16T04:05:36.627Z,21.70
2022-11-16T04:08:41.744Z,19.20
2022-11-16T04:11:48.753Z,18.10
2022-11-16T04:14:54.100Z,18.90
2022-11-16T04:17:59.041Z,18.20
2022-11-16T04:21:04.004Z,17.90
2022-11-16T04:24:08.993Z,17.80
2022-11-16T04:27:15.988Z,17.60
2022-11-16T04:30:02.846Z,16.00
2022-11-16T04:33:07.857Z,16.50
2022-11-16T04:36:17.868Z,14.90
2022-11-16T04:39:06.777Z,13.80
2022-11-16T04:42:12.218Z,12.30
2022-11-16T04:45:17.576Z,14.30
2022-11-16T04:48:05.002Z,15.70
2022-11-16T04:50:51.608Z,16.00
2022-11-16T04:53:38.445Z,13.60
2022-11-16T04:56:25.554Z,12.70
2022-11-16T04:59:12.327Z,14.60
2022-11-16T05:02:10.791Z,13.40
2022-11-16T05:04:57.684Z,14.70
2022-11-16T05:07:44.499Z,13.80
2022-11-16T05:10:31.275Z,13.70
2022-11-16T05:13:17.823Z,15.60
2022-11-16T05:16:04.587Z,16.20
2022-11-16T05:19:11.412Z,14.90
2022-11-16T05:21:57.917Z,14.90
2022-11-16T05:24:46.058Z,13.90
2022-11-16T05:27:32.825Z,13.50
2022-11-16T05:30:19.575Z,14.30
2022-11-16T05:33:06.161Z,11.10
2022-11-16T05:35:53.060Z,14.40
2022-11-16T05:38:39.474Z,13.70
2022-11-16T05:41:25.988Z,14.50
2022-11-16T05:44:13.252Z,14.30
2022-11-16T05:47:00.137Z,13.00
2022-11-16T05:49:47.536Z,14.80
2022-11-16T05:52:34.095Z,13.20
2022-11-16T05:55:20.418Z,13.60
2022-11-16T05:58:07.002Z,14.60
2022-11-16T06:00:53.785Z,15.00
2022-11-16T06:03:40.453Z,13.40
2022-11-16T06:06:27.723Z,14.30
2022-11-16T06:09:14.621Z,15.20
2022-11-16T06:12:01.432Z,14.20
2022-11-16T06:14:48.214Z,14.70
2022-11-16T06:17:35.128Z,15.20
2022-11-16T06:20:21.900Z,14.80
2022-11-16T06:23:08.511Z,15.00
2022-11-16T06:25:55.420Z,14.40
2022-11-16T06:28:41.817Z,13.60
2022-11-16T06:31:28.302Z,12.90
2022-11-16T06:34:14.790Z,12.50
2022-11-16T06:37:01.260Z,11.00
2022-11-16T06:39:47.846Z,14.60
2022-11-16T06:42:34.740Z,14.60
2022-11-16T06:45:21.657Z,14.20
2022-11-16T06:48:08.700Z,14.30
2022-11-16T06:50:55.149Z,13.80
2022-11-16T06:53:41.886Z,13.60
2022-11-16T06:56:28.149Z,14.10
2022-11-16T06:59:15.054Z,13.30
2022-11-16T07:02:01.523Z,14.90
2022-11-16T07:04:48.252Z,11.60
2022-11-16T07:07:34.827Z,12.80
2022-11-16T07:10:22.246Z,13.50
2022-11-16T07:13:08.865Z,14.10
2022-11-16T07:16:01.146Z,13.60
2022-11-16T07:18:47.953Z,15.00
2022-11-16T07:21:35.126Z,11.80
2022-11-16T07:24:21.582Z,13.50
2022-11-16T07:27:08.955Z,14.70
2022-11-16T07:29:55.866Z,11.70
2022-11-16T07:32:43.350Z,11.40
2022-11-16T07:35:30.009Z,10.30
2022-11-16T07:38:18.130Z,13.00
2022-11-16T07:41:09.307Z,13.90
2022-11-16T07:43:57.002Z,12.30
2022-11-16T07:46:47.049Z,13.70
2022-11-16T07:49:34.080Z,15.20
2022-11-16T07:52:20.802Z,13.10
2022-11-16T07:55:08.028Z,13.90
2022-11-16T07:57:55.026Z,14.30
2022-11-16T08:00:41.663Z,12.40
2022-11-16T08:03:28.305Z,13.90
2022-11-16T08:06:19.981Z,15.00
2022-11-16T08:09:06.431Z,13.60
2022-11-16T08:11:53.092Z,14.20
2022-11-16T08:14:39.903Z,15.80
2022-11-16T08:17:26.302Z,15.10
2022-11-16T08:20:13.183Z,14.90
2022-11-16T08:23:00.932Z,13.10
2022-11-16T08:25:47.459Z,14.30
2022-11-16T08:28:34.434Z,13.80
2022-11-16T08:31:24.106Z,14.00
2022-11-16T08:34:10.999Z,14.90
2022-11-16T08:36:57.904Z,13.90
2022-11-16T08:39:44.886Z,14.00
2022-11-16T08:42:31.764Z,12.80
2022-11-16T08:45:18.428Z,13.40
2022-11-16T08:48:05.847Z,14.30
2022-11-16T08:51:15.994Z,11.30
2022-11-16T08:53:59.129Z,11.60
2022-11-16T08:56:46.113Z,12.00
2022-11-16T08:59:32.769Z,12.00
2022-11-16T09:02:25.696Z,11.10
2022-11-16T09:05:12.308Z,11.20
2022-11-16T09:07:59.118Z,9.60
2022-11-16T09:10:46.008Z,13.40
2022-11-16T09:13:32.599Z,16.60
2022-11-16T09:16:21.058Z,14.20
2022-11-16T09:19:08.051Z,12.30
2022-11-16T09:21:54.602Z,11.50
2022-11-16T09:24:41.136Z,11.60
2022-11-16T09:27:28.298Z,11.90
2022-11-16T09:30:15.445Z,11.10
2022-11-16T09:33:02.683Z,10.20
2022-11-16T09:35:49.391Z,10.70
2022-11-16T09:39:13.926Z,13.90
2022-11-16T09:41:58.712Z,13.10
2022-11-16T09:44:54.353Z,13.10
2022-11-16T09:47:45.991Z,13.70
2022-11-16T09:50:45.075Z,9.50
2022-11-16T09:53:49.556Z,10.40
2022-11-16T09:56:37.970Z,7.80
2022-11-16T09:59:29.984Z,10.90
2022-11-16T10:02:44.452Z,10.40
2022-11-16T10:06:08.209Z,12.50
2022-11-16T10:08:57.019Z,10.30
2022-11-16T10:12:08.628Z,9.80
2022-11-16T10:15:12.918Z,12.60
2022-11-16T10:18:16.390Z,8.80
2022-11-16T10:21:09.228Z,10.20
2022-11-16T10:24:08.903Z,7.30
2022-11-16T10:27:34.639Z,11.10
2022-11-16T10:30:21.965Z,10.30
2022-11-16T10:33:12.019Z,11.70
2022-11-16T10:35:58.947Z,11.60
2022-11-16T10:38:45.423Z,10.60
2022-11-16T10:41:36.118Z,10.40
2022-11-16T10:44:43.440Z,8.50
2022-11-16T10:47:36.973Z,10.10
2022-11-16T10:50:39.670Z,6.20
2022-11-16T10:53:41.821Z,8.20
2022-11-16T10:56:37.405Z,9.90
2022-11-16T10:59:40.256Z,10.60
2022-11-16T11:02:27.068Z,9.30
2022-11-16T11:05:22.959Z,10.00
2022-11-16T11:08:10.614Z,10.30
2022-11-16T11:11:01.785Z,9.60
2022-11-16T11:14:15.564Z,9.10
2022-11-16T11:17:11.203Z,10.80
2022-11-16T11:20:05.680Z,11.50
2022-11-16T11:22:56.421Z,11.20
2022-11-16T11:25:54.228Z,10.40
2022-11-16T11:28:47.853Z,8.70
2022-11-16T11:31:39.314Z,9.30
2022-11-16T11:34:30.355Z,11.40
2022-11-16T11:37:19.791Z,8.40
2022-11-16T11:40:20.065Z,8.00
2022-11-16T11:43:06.623Z,10.50
2022-11-16T11:46:11.039Z,10.70
2022-11-16T11:49:01.684Z,11.30
2022-11-16T11:51:48.358Z,10.90
2022-11-16T11:54:45.666Z,11.90
2022-11-16T11:57:35.547Z,8.80
2022-11-16T12:00:22.768Z,11.60
2022-11-16T12:03:46.279Z,10.50
2022-11-16T12:06:36.181Z,12.50
2022-11-16T12:09:49.174Z,11.50
2022-11-16T12:12:46.807Z,12.60
2022-11-16T12:16:00.258Z,12.90
2022-11-16T12:23:16.453Z,10.50
2022-11-16T12:26:11.095Z,11.80
2022-11-16T12:28:58.362Z,11.30
2022-11-16T12:31:58.088Z,9.70
2022-11-16T12:35:09.960Z,11.70
2022-11-16T12:38:06.130Z,8.00
2022-11-16T12:41:25.052Z,12.30
2022-11-16T12:44:13.031Z,11.60
2022-11-16T12:47:07.028Z,10.10
2022-11-16T12:50:28.768Z,9.80
2022-11-16T12:53:44.680Z,11.50
2022-11-16T12:56:37.273Z,9.00
2022-11-16T12:59:30.545Z,11.00
2022-11-16T13:02:44.744Z,10.80
2022-11-16T13:05:49.473Z,10.80
2022-11-16T13:08:47.124Z,10.40
2022-11-16T13:11:39.748Z,9.10
2022-11-16T13:14:33.042Z,10.30
2022-11-16T13:17:21.896Z,9.90
2022-11-16T13:20:40.592Z,9.00
2022-11-16T13:23:55.153Z,11.10
2022-11-16T13:26:48.269Z,9.80
2022-11-16T13:29:43.427Z,10.70
2022-11-16T13:32:34.973Z,11.00
2022-11-16T13:35:23.217Z,11.70
2022-11-16T13:38:15.715Z,13.30
2022-11-16T13:41:28.842Z,11.30
2022-11-16T13:44:20.390Z,11.60
2022-11-16T13:47:07.487Z,11.30
2022-11-16T13:49:57.863Z,10.50
2022-11-16T13:55:56.994Z,12.50
2022-11-16T13:58:47.879Z,11.30
2022-11-16T14:04:42.528Z,10.60
2022-11-16T14:07:32.238Z,10.10
2022-11-16T14:10:34.111Z,10.20
2022-11-16T14:13:36.531Z,9.60
2022-11-16T14:19:47.629Z,8.90
2022-11-16T14:23:02.720Z,9.90
2022-11-16T14:26:36.895Z,10.20
2022-11-16T14:29:41.532Z,11.30
2022-11-16T14:32:34.922Z,10.30
2022-11-16T14:35:30.483Z,11.50
2022-11-16T14:38:22.071Z,11.20
2022-11-16T14:41:22.489Z,11.50
2022-11-16T14:44:09.347Z,10.90
2022-11-16T14:46:56.587Z,11.10
2022-11-16T14:49:43.371Z,9.80
2022-11-16T14:52:36.890Z,10.00
2022-11-16T14:55:25.257Z,9.00
2022-11-16T14:58:22.111Z,10.10
2022-11-16T15:01:13.822Z,9.70
2022-11-16T15:04:04.748Z,8.60
2022-11-16T15:09:53.652Z,7.70
2022-11-16T15:12:44.452Z,7.80
2022-11-16T15:15:31.600Z,6.60
2022-11-16T15:18:20.229Z,7.70
2022-11-16T15:21:07.271Z,7.90
2022-11-16T15:24:23.357Z,8.20
2022-11-16T15:27:16.315Z,7.40
2022-11-16T15:30:16.033Z,8.20
2022-11-16T15:33:15.581Z,8.40
2022-11-16T15:36:02.187Z,8.90
2022-11-16T15:38:48.649Z,9.30
2022-11-16T15:41:35.314Z,11.80
2022-11-16T15:44:22.251Z,10.10
2022-11-16T15:47:09.394Z,8.00
2022-11-16T15:49:56.259Z,8.60
2022-11-16T15:52:54.633Z,9.40
2022-11-16T15:55:41.719Z,8.60
2022-11-16T15:58:28.952Z,8.40
2022-11-16T16:01:15.580Z,8.60
2022-11-16T16:04:06.745Z,8.50
2022-11-16T16:06:58.010Z,8.00
2022-11-16T16:09:48.556Z,8.50
2022-11-16T16:12:35.125Z,9.80
2022-11-16T16:15:26.067Z,10.00
2022-11-16T16:18:34.576Z,11.00
2022-11-16T16:21:21.494Z,12.80
2022-11-16T16:24:10.103Z,9.50
2022-11-16T16:26:56.965Z,8.70
2022-11-16T16:29:47.204Z,9.20
2022-11-16T16:32:35.082Z,9.10
2022-11-16T16:35:23.180Z,11.80
2022-11-16T16:38:14.215Z,9.80
2022-11-16T16:41:02.817Z,11.50
2022-11-16T16:43:49.631Z,11.30
2022-11-16T16:46:36.787Z,12.30
2022-11-16T16:49:23.730Z,12.20
2022-11-16T16:52:12.284Z,13.00
2022-11-16T16:54:59.219Z,11.40
2022-11-16T16:57:45.768Z,11.50
2022-11-16T17:00:32.822Z,10.50
2022-11-16T17:03:19.711Z,11.70
2022-11-16T17:06:06.358Z,7.90
2022-11-16T17:08:53.623Z,9.00
2022-11-16T17:11:40.496Z,8.20
2022-11-16T17:14:27.210Z,8.30
2022-11-16T17:17:14.189Z,6.50
2022-11-16T17:20:01.017Z,5.80
2022-11-16T17:22:47.825Z,5.80
2022-11-16T17:25:35.046Z,6.90
2022-11-16T17:28:23.620Z,6.30
2022-11-16T17:31:11.526Z,6.50
2022-11-16T17:33:59.115Z,6.30
2022-11-16T17:36:47.381Z,6.30
2022-11-16T17:39:34.247Z,5.60
2022-11-16T17:42:20.833Z,4.10
2022-11-16T17:45:07.939Z,4.60
2022-11-16T17:47:54.921Z,3.30
2022-11-16T17:50:47.431Z,4.90
2022-11-16T17:53:35.693Z,2.60
2022-11-16T17:56:26.276Z,4.00
2022-11-16T17:59:12.860Z,4.70
2022-11-16T18:01:59.627Z,5.60
2022-11-16T18:04:51.395Z,5.60
2022-11-16T18:07:40.292Z,6.50
2022-11-16T18:10:26.991Z,7.00
2022-11-16T18:13:16.366Z,4.00
2022-11-16T18:16:07.288Z,4.10
2022-11-16T18:19:02.545Z,4.50
2022-11-16T18:21:49.567Z,5.00
2022-11-16T18:24:36.523Z,5.30
2022-11-16T18:27:22.962Z,5.30
2022-11-16T18:30:10.595Z,7.10
2022-11-16T18:32:57.218Z,7.80
2022-11-16T18:35:44.420Z,9.10
2022-11-16T18:38:31.076Z,8.30
2022-11-16T18:41:22.343Z,6.80
2022-11-16T18:44:08.748Z,5.70
2022-11-16T18:46:55.624Z,7.20
2022-11-16T18:49:42.263Z,7.60
2022-11-16T18:52:28.983Z,8.10
2022-11-16T18:55:15.771Z,6.20
2022-11-16T18:58:06.472Z,6.80
2022-11-16T19:01:06.656Z,5.30
2022-11-16T19:03:54.135Z,5.60
2022-11-16T19:06:40.536Z,3.50
2022-11-16T19:09:28.064Z,6.40
2022-11-16T19:12:14.612Z,5.50
2022-11-16T19:15:01.331Z,4.10
2022-11-16T19:18:06.725Z,6.00
2022-11-16T19:21:14.014Z,3.70
2022-11-16T19:24:00.826Z,6.40
2022-11-16T19:26:47.416Z,4.10
2022-11-16T19:29:34.441Z,5.00
2022-11-16T19:32:21.159Z,6.10
2022-11-16T19:35:10.997Z,5.20
2022-11-16T19:37:57.551Z,5.20
2022-11-16T19:40:44.258Z,6.00
2022-11-16T19:43:30.854Z,4.60
2022-11-16T19:46:17.459Z,5.50
2022-11-16T19:49:04.572Z,5.50
2022-11-16T19:51:51.383Z,5.40
2022-11-16T19:54:38.160Z,4.60
2022-11-16T19:57:25.115Z,5.60
2022-11-16T20:00:12.636Z,4.70
2022-11-16T20:02:59.449Z,5.90
2022-11-16T20:05:45.913Z,5.80
2022-11-16T20:08:32.348Z,5.80
2022-11-16T20:11:20.765Z,6.90
2022-11-16T20:14:09.384Z,5.20
2022-11-16T20:16:56.060Z,6.10
2022-11-16T20:19:42.975Z,5.00
2022-11-16T20:22:29.867Z,4.90
2022-11-16T20:25:16.981Z,4.30
2022-11-16T20:28:04.738Z,5.80
2022-11-16T20:30:51.239Z,5.70
2022-11-16T20:33:38.398Z,6.10
2022-11-16T20:36:26.499Z,4.80
2022-11-16T20:39:19.044Z,4.00
2022-11-16T20:42:05.548Z,5.20
2022-11-16T20:44:52.775Z,5.10
2022-11-16T20:47:39.577Z,4.80
2022-11-16T20:50:26.291Z,3.80
2022-11-16T20:53:12.992Z,4.40
2022-11-16T20:56:02.776Z,3.80
2022-11-16T20:58:50.082Z,4.10
2022-11-16T21:01:36.889Z,5.70
2022-11-16T21:04:23.659Z,6.60
2022-11-16T21:07:11.103Z,5.40
2022-11-16T21:10:18.846Z,3.10
2022-11-16T21:13:24.907Z,4.60
2022-11-16T21:16:12.486Z,4.80
2022-11-16T21:18:59.291Z,4.00
2022-11-16T21:21:46.365Z,4.00
2022-11-16T21:24:33.686Z,4.10
2022-11-16T21:27:20.292Z,3.80
2022-11-16T21:30:08.029Z,4.10
2022-11-16T21:32:54.429Z,4.80
2022-11-16T21:35:41.340Z,5.00
2022-11-16T21:38:28.048Z,5.40
2022-11-16T21:41:15.473Z,5.10
2022-11-16T21:44:01.876Z,6.20
2022-11-16T21:46:48.500Z,5.60
2022-11-16T21:49:43.253Z,3.60
2022-11-16T21:52:42.203Z,6.30
2022-11-16T21:55:29.291Z,6.30
2022-11-16T21:58:15.896Z,6.20
2022-11-16T22:01:02.811Z,6.80
2022-11-16T22:04:09.795Z,6.70
2022-11-16T22:07:15.454Z,5.80
2022-11-16T22:10:07.745Z,8.20
2022-11-16T22:12:54.400Z,6.00
2022-11-16T22:15:41.725Z,6.30
2022-11-16T22:18:29.865Z,5.50
2022-11-16T22:21:16.471Z,6.40
2022-11-16T22:24:03.082Z,5.40
2022-11-16T22:26:49.889Z,5.70
2022-11-16T22:29:36.599Z,4.70
2022-11-16T22:32:22.992Z,2.60
2022-11-16T22:35:09.603Z,4.60
2022-11-16T22:37:56.314Z,4.80
2022-11-16T22:40:49.574Z,5.30
2022-11-16T22:43:37.779Z,5.70
2022-11-16T22:46:24.840Z,5.60
2022-11-16T22:49:11.338Z,5.10
2022-11-16T22:51:58.146Z,5.70
2022-11-16T22:54:44.753Z,6.00
2022-11-16T22:57:31.048Z,5.60
2022-11-16T23:00:18.477Z,5.20
2022-11-16T23:03:05.323Z,7.00
2022-11-16T23:05:52.133Z,4.60
2022-11-16T23:08:40.346Z,6.40
2022-11-16T23:11:46.101Z,5.80
2022-11-16T23:14:51.638Z,6.20
2022-11-16T23:17:38.448Z,5.90
2022-11-16T23:20:43.999Z,5.40
2022-11-16T23:23:49.040Z,6.50
2022-11-16T23:26:54.487Z,7.10
2022-11-16T23:29:41.812Z,5.30
2022-11-16T23:32:29.182Z,5.90
2022-11-16T23:35:16.046Z,4.80
2022-11-16T23:38:04.393Z,4.20
2022-11-16T23:40:51.039Z,5.40
2022-11-16T23:43:56.646Z,5.80
2022-11-16T23:46:43.259Z,6.10
2022-11-16T23:49:29.963Z,6.00
2022-11-16T23:52:16.671Z,4.30
2022-11-16T23:55:03.073Z,6.00
2022-11-16T23:57:50.600Z,7.30
